Time;durP1;ratioP1;P1;durP2;ratioP2;P2;SDS_P1;SDS_P2;PMS_P1;PMS_P2;Temp;Humidity;BMP_temperature;BMP_pressure;BME280_temperature;BME280_humidity;BME280_pressure;Samples;Min_cycle;Max_cycle;Signal;HPM_P1;HPM_P2
2023/07/04 00:01:04;;;;;;;1999.90;999.90;;;;;;;19.50;100.00;95156.16;5108339;28;20210;-69
2023/07/04 00:03:30;;;;;;;1999.90;999.90;;;;;;;19.53;100.00;95163.53;5108948;28;20240;-69
2023/07/04 00:05:56;;;;;;;1999.90;999.90;;;;;;;19.53;100.00;95169.09;5108565;28;20195;-69
2023/07/04 00:08:26;;;;;;;1999.90;999.90;;;;;;;19.57;100.00;95169.69;5108843;28;20203;-69
2023/07/04 00:10:52;;;;;;;1999.90;999.90;;;;;;;19.59;100.00;95155.38;5108278;28;20174;-69
2023/07/04 00:13:18;;;;;;;1999.90;999.90;;;;;;;19.60;100.00;95151.34;5108586;28;20186;-69
2023/07/04 00:15:45;;;;;;;1999.90;999.90;;;;;;;19.62;100.00;95144.09;5108156;28;20193;-60
2023/07/04 00:18:11;;;;;;;1999.90;999.90;;;;;;;19.64;100.00;95141.66;5108194;28;20168;-63
2023/07/04 00:20:37;;;;;;;1999.90;999.90;;;;;;;19.66;100.00;95144.69;5108503;28;20167;-69
2023/07/04 00:23:04;;;;;;;1999.90;999.90;;;;;;;19.67;100.00;95143.47;5126087;28;20213;-69
2023/07/04 00:25:30;;;;;;;1999.90;999.90;;;;;;;19.67;100.00;95135.16;5126039;28;20176;-70
2023/07/04 00:27:56;;;;;;;1999.90;999.90;;;;;;;19.68;100.00;95139.47;5107779;28;20175;-69
2023/07/04 00:30:21;;;;;;;1999.90;999.90;;;;;;;19.69;100.00;95143.75;5108662;28;20168;-68
2023/07/04 00:32:46;;;;;;;1999.90;999.90;;;;;;;19.73;100.00;95143.63;5108431;28;20172;-68
2023/07/04 00:35:13;;;;;;;1999.90;999.90;;;;;;;19.71;100.00;95141.31;5107832;28;20217;-66
2023/07/04 00:37:38;;;;;;;1999.90;999.90;;;;;;;19.66;100.00;95141.19;5107667;28;20167;-70
2023/07/04 00:40:09;;;;;;;1999.90;999.90;;;;;;;19.61;100.00;95142.56;5108478;28;20167;-70
2023/07/04 00:42:36;;;;;;;1999.90;999.90;;;;;;;19.60;100.00;95154.91;5125627;28;20232;-70
2023/07/04 00:45:09;;;;;;;1999.90;999.90;;;;;;;19.55;100.00;95155.50;5108668;28;20164;-69
2023/07/04 00:47:43;;;;;;;1999.90;999.90;;;;;;;19.49;100.00;95155.38;5125423;28;20155;-69
2023/07/04 00:50:10;;;;;;;1999.90;999.90;;;;;;;19.46;100.00;95158.31;5108279;28;20191;-69
2023/07/04 00:52:37;;;;;;;1999.90;999.90;;;;;;;19.43;100.00;95153.72;5107717;28;20164;-70
2023/07/04 00:55:09;;;;;;;1999.90;999.90;;;;;;;19.34;100.00;95153.75;5107660;28;20164;-56
2023/07/04 00:57:37;;;;;;;1999.90;999.90;;;;;;;19.33;100.00;95154.97;5108120;28;20170;-64
2023/07/04 01:00:19;;;;;;;1999.90;999.90;;;;;;;19.35;100.00;95158.03;5107533;28;20202;-63
2023/07/04 01:02:50;;;;;;;1999.90;999.90;;;;;;;19.32;100.00;95158.97;5107976;28;20166;-62
2023/07/04 01:05:19;;;;;;;1999.90;999.90;;;;;;;19.27;100.00;95165.16;5107563;28;20179;-64
2023/07/04 01:07:59;;;;;;;1999.90;999.90;;;;;;;19.23;100.00;95172.81;5107415;28;20182;-62
2023/07/04 01:10:40;;;;;;;1999.90;999.90;;;;;;;19.19;100.00;95178.50;5107505;28;20195;-68
2023/07/04 01:13:36;;;;;;;1999.90;999.90;;;;;;;19.20;100.00;95180.03;5108265;28;20160;-58
2023/07/04 01:16:06;;;;;;;1999.90;999.90;;;;;;;19.21;100.00;95183.59;5107374;28;20176;-63
2023/07/04 01:18:32;;;;;;;1999.90;999.90;;;;;;;19.23;100.00;95189.44;5107969;28;20164;-63
2023/07/04 01:21:00;;;;;;;1999.90;999.90;;;;;;;19.22;100.00;95198.97;5107796;28;20172;-63
2023/07/04 01:23:57;;;;;;;1999.90;999.90;;;;;;;19.27;100.00;95201.16;5107304;28;20172;-63
2023/07/04 01:26:46;;;;;;;1999.90;999.90;;;;;;;19.28;100.00;95206.22;5069611;28;20199;-63
2023/07/04 01:29:14;;;;;;;1999.90;999.90;;;;;;;19.30;100.00;95205.75;5107294;28;20278;-60
2023/07/04 01:31:41;;;;;;;1999.90;999.90;;;;;;;19.30;100.00;95205.75;5106902;28;20190;-54
2023/07/04 01:34:08;;;;;;;1999.90;999.90;;;;;;;19.33;100.00;95200.06;5107705;28;20199;-58
2023/07/04 01:36:37;;;;;;;1999.90;999.90;;;;;;;19.35;100.00;95202.38;5107192;28;20215;-58
2023/07/04 01:39:03;;;;;;;1999.90;999.90;;;;;;;19.35;100.00;95196.81;5107227;28;20179;-58
2023/07/04 01:41:29;;;;;;;1999.90;999.90;;;;;;;19.29;100.00;95204.22;5111158;28;20164;-57
2023/07/04 01:44:06;;;;;;;1999.90;999.90;;;;;;;19.27;100.00;95201.91;5111680;28;20168;-57
2023/07/04 01:46:32;;;;;;;1999.90;999.90;;;;;;;19.23;100.00;95206.06;5111634;28;20170;-58
2023/07/04 01:48:58;;;;;;;1999.90;999.90;;;;;;;19.22;100.00;95215.56;5111080;28;20200;-58
2023/07/04 01:51:34;;;;;;;1999.90;999.90;;;;;;;19.17;100.00;95213.44;5111075;28;20172;-62
2023/07/04 01:54:01;;;;;;;1999.90;999.90;;;;;;;19.14;100.00;95214.34;5111678;28;20224;-62
2023/07/04 01:56:28;;;;;;;1999.90;999.90;;;;;;;19.11;100.00;95216.06;5129053;28;20174;-62
2023/07/04 01:58:53;;;;;;;1999.90;999.90;;;;;;;19.08;100.00;95216.19;5110859;28;20168;-62
2023/07/04 02:01:19;;;;;;;1999.90;999.90;;;;;;;19.06;100.00;95213.88;5110868;28;20176;-62
2023/07/04 02:03:45;;;;;;;1999.90;999.90;;;;;;;19.04;100.00;95215.59;5110439;28;20250;-62
2023/07/04 02:06:10;;;;;;;1999.90;999.90;;;;;;;18.99;100.00;95210.66;5111352;28;20217;-69
2023/07/04 02:08:35;;;;;;;1999.90;999.90;;;;;;;18.99;100.00;95224.50;5110783;28;20198;-70
2023/07/04 02:11:02;;;;;;;1999.90;999.90;;;;;;;19.00;100.00;95237.13;5110620;28;20171;-60
2023/07/04 02:13:27;;;;;;;1999.90;999.90;;;;;;;18.97;100.00;95238.81;5111166;28;20164;-60
2023/07/04 02:15:53;;;;;;;1999.90;999.90;;;;;;;18.98;100.00;95245.13;5110603;28;20235;-59
2023/07/04 02:18:18;;;;;;;1999.90;999.90;;;;;;;18.97;100.00;95246.34;5110603;28;20255;-60
2023/07/04 02:20:43;;;;;;;1999.90;999.90;;;;;;;18.97;100.00;95243.56;5110239;28;20176;-60
2023/07/04 02:23:09;;;;;;;1999.90;999.90;;;;;;;19.01;100.00;95252.50;5110971;28;20176;-60
2023/07/04 02:25:40;;;;;;;1999.90;999.90;;;;;;;18.98;100.00;95245.13;5110322;28;20178;-57
2023/07/04 02:28:05;;;;;;;1999.90;999.90;;;;;;;18.99;100.00;95241.13;5110981;28;20187;-63
2023/07/04 02:30:31;;;;;;;1999.90;999.90;;;;;;;18.95;100.00;95234.97;5110555;28;20221;-63
2023/07/04 02:32:56;;;;;;;1999.90;999.90;;;;;;;18.94;100.00;95233.44;5110191;28;20204;-63
2023/07/04 02:35:21;;;;;;;1999.90;999.90;;;;;;;18.86;100.00;95223.88;5109969;28;20239;-63
2023/07/04 02:37:47;;;;;;;1999.90;999.90;;;;;;;18.81;100.00;95230.81;5110782;28;20171;-63
2023/07/04 02:40:12;;;;;;;1999.90;999.90;;;;;;;18.70;100.00;95226.94;5109935;28;20179;-62
2023/07/04 02:42:37;;;;;;;1999.90;999.90;;;;;;;18.56;100.00;95230.31;5128078;28;20164;-63
2023/07/04 02:45:06;;;;;;;1999.90;999.90;;;;;;;18.50;100.00;95226.63;5110834;28;20171;-61
2023/07/04 02:47:32;;;;;;;1999.90;999.90;;;;;;;18.45;100.00;95241.03;5110732;28;20168;-57
2023/07/04 02:49:57;;;;;;;1999.90;999.90;;;;;;;18.37;100.00;95239.81;5109857;28;20207;-53
2023/07/04 02:52:24;;;;;;;1999.90;999.90;;;;;;;18.33;100.00;95239.16;5109151;28;20251;-56
2023/07/04 02:54:50;;;;;;;1999.90;999.90;;;;;;;18.31;100.00;95236.06;5110370;28;20168;-53
2023/07/04 02:57:16;;;;;;;1999.90;999.90;;;;;;;18.30;100.00;95226.22;5109667;28;20167;-54
2023/07/04 02:59:42;;;;;;;1999.90;999.90;;;;;;;18.28;100.00;95214.88;5110249;28;20168;-55
2023/07/04 03:02:07;;;;;;;1999.90;999.90;;;;;;;18.16;100.00;95207.44;5109505;28;20301;-54
2023/07/04 03:04:33;;;;;;;1999.90;999.90;;;;;;;18.15;100.00;95179.06;5109642;28;20168;-68
2023/07/04 03:06:58;;;;;;;1999.90;999.90;;;;;;;18.13;100.00;95164.13;5109670;28;20174;-68
2023/07/04 03:09:24;;;;;;;1999.90;999.90;;;;;;;18.11;100.00;95167.38;5109556;28;20195;-67
2023/07/04 03:11:49;;;;;;;1999.90;999.90;;;;;;;18.01;100.00;95145.69;5109592;28;20220;-68
2023/07/04 03:14:15;;;;;;;1999.90;999.90;;;;;;;17.92;100.00;95120.78;5109574;28;20172;-68
2023/07/04 03:16:40;;;;;;;1999.90;999.90;;;;;;;17.82;100.00;95094.38;5109446;28;20176;-68
2023/07/04 03:19:05;;;;;;;1999.90;999.90;;;;;;;17.78;100.00;95072.38;5109451;28;20217;-68
2023/07/04 03:21:31;;;;;;;1999.90;999.90;;;;;;;17.74;100.00;95048.91;5109424;28;20176;-61
2023/07/04 03:23:56;;;;;;;1999.90;999.90;;;;;;;17.68;100.00;95034.94;5109734;28;20195;-68
2023/07/04 03:26:22;;;;;;;1999.90;999.90;;;;;;;17.61;100.00;95018.66;5109190;28;20214;-68
2023/07/04 03:28:47;;;;;;;1999.90;999.90;;;;;;;17.55;100.00;95003.16;5109053;28;20227;-68
2023/07/04 03:31:13;;;;;;;1999.90;999.90;;;;;;;17.51;100.00;94985.94;5109159;28;20188;-68
2023/07/04 03:33:38;;;;;;;1999.90;999.90;;;;;;;17.49;100.00;94978.16;5109087;28;20204;-67
2023/07/04 03:36:05;;;;;;;1999.90;999.90;;;;;;;17.53;100.00;94969.69;5109144;28;20226;-69
2023/07/04 03:38:31;;;;;;;1999.90;999.90;;;;;;;17.55;100.00;94950.69;5126784;28;20229;-68
2023/07/04 03:40:58;;;;;;;1999.90;999.90;;;;;;;17.50;100.00;94945.75;5109161;28;20168;-61
2023/07/04 03:43:24;;;;;;;1999.90;999.90;;;;;;;17.56;100.00;94943.94;5108912;28;20164;-59
2023/07/04 03:45:50;;;;;;;1999.90;999.90;;;;;;;17.55;100.00;94943.16;5108677;28;20210;-59
2023/07/04 03:48:15;;;;;;;1999.90;999.90;;;;;;;17.49;100.00;94938.72;5109248;28;20183;-60
2023/07/04 03:50:41;;;;;;;1999.90;999.90;;;;;;;17.53;100.00;94942.09;5108801;28;20168;-60
2023/07/04 03:53:07;;;;;;;1999.90;999.90;;;;;;;17.53;100.00;94942.09;5109238;28;20198;-59
2023/07/04 03:55:33;;;;;;;1999.90;999.90;;;;;;;17.52;100.00;94921.22;5108910;28;20164;-61
2023/07/04 03:57:58;;;;;;;1999.90;999.90;;;;;;;17.57;100.00;94920.63;5109437;28;20166;-57
2023/07/04 04:00:23;;;;;;;1999.90;999.90;;;;;;;17.63;100.00;94938.13;5108692;28;20186;-67
2023/07/04 04:02:49;;;;;;;1999.90;999.90;;;;;;;17.66;100.00;94937.19;5108118;28;20263;-67
2023/07/04 04:05:14;;;;;;;1999.90;999.90;;;;;;;17.78;100.00;94933.50;5108560;28;20164;-68
2023/07/04 04:07:39;;;;;;;1999.90;999.90;;;;;;;17.88;100.00;94951.63;5108392;28;20168;-68
2023/07/04 04:10:05;;;;;;;1999.90;999.90;;;;;;;17.98;100.00;94966.97;5108691;28;20215;-67
2023/07/04 04:12:31;;;;;;;1999.90;999.90;;;;;;;18.26;100.00;94990.59;5108281;28;20172;-64
2023/07/04 04:14:56;;;;;;;1999.90;999.90;;;;;;;18.87;100.00;95028.94;5108302;28;20168;-54
2023/07/04 04:17:22;;;;;;;1999.90;999.90;;;;;;;19.45;100.00;95093.09;5108785;28;20172;-61
2023/07/04 04:19:47;;;;;;;1999.90;999.90;;;;;;;19.78;100.00;95146.50;5108855;28;20338;-62
2023/07/04 04:22:14;;;;;;;1999.90;999.90;;;;;;;20.02;100.00;95183.34;5108105;28;20255;-62
2023/07/04 04:24:40;;;;;;;1999.90;999.90;;;;;;;20.30;100.00;95204.22;5108323;28;20168;-62
2023/07/04 04:27:08;;;;;;;1999.90;999.90;;;;;;;20.22;100.00;95221.66;5107958;28;20234;-62
2023/07/04 04:29:34;;;;;;;1999.90;999.90;;;;;;;20.03;100.00;95234.78;5107750;28;20202;-65
2023/07/04 04:32:00;;;;;;;1999.90;999.90;;;;;;;19.80;100.00;95237.50;5107966;28;20188;-62
2023/07/04 04:34:26;;;;;;;1999.90;999.90;;;;;;;19.68;100.00;95242.00;5107963;28;20156;-61
2023/07/04 04:36:51;;;;;;;1999.90;999.90;;;;;;;19.42;100.00;95243.59;5107291;28;20304;-55
2023/07/04 04:39:16;;;;;;;1999.90;999.90;;;;;;;19.32;100.00;95219.91;5108373;28;20213;-54
2023/07/04 04:41:42;;;;;;;1999.90;999.90;;;;;;;19.15;100.00;95213.91;5107885;28;20182;-54
2023/07/04 04:44:08;;;;;;;1999.90;999.90;;;;;;;19.05;100.00;95206.81;5108762;28;20256;-55
2023/07/04 04:46:34;;;;;;;1999.90;999.90;;;;;;;19.06;100.00;95202.06;5107837;28;20175;-56
2023/07/04 04:49:03;;;;;;;1999.90;999.90;;;;;;;19.05;100.00;95195.00;5107729;28;20200;-52
2023/07/04 04:51:30;;;;;;;1999.90;999.90;;;;;;;18.98;100.00;95198.06;5107645;28;20172;-60
2023/07/04 04:53:55;;;;;;;1999.90;999.90;;;;;;;19.14;100.00;95198.53;5107711;28;20172;-55
2023/07/04 04:56:21;;;;;;;1999.90;999.90;;;;;;;19.21;100.00;95205.72;5107638;28;20178;-54
2023/07/04 04:58:46;;;;;;;1999.90;999.90;;;;;;;19.22;100.00;95207.25;5125770;28;20183;-55
2023/07/04 05:01:17;;;;;;;1999.90;999.90;;;;;;;19.23;100.00;95214.38;5125543;28;20168;-52
2023/07/04 05:03:43;;;;;;;1999.90;999.90;;;;;;;19.27;100.00;95217.78;5107942;28;20171;-54
2023/07/04 05:06:10;;;;;;;1999.90;999.90;;;;;;;19.30;100.00;95222.34;5107942;28;20216;-51
2023/07/04 05:08:35;;;;;;;1999.90;999.90;;;;;;;19.28;100.00;95233.16;5107319;28;20195;-55
2023/07/04 05:11:04;;;;;;;1999.90;999.90;;;;;;;19.15;100.00;95238.81;5107780;28;20247;-54
2023/07/04 05:13:30;;;;;;;1999.90;999.90;;;;;;;19.19;100.00;95235.88;5124805;28;20163;-62
2023/07/04 05:16:05;;;;;;;1999.90;999.90;;;;;;;19.18;100.00;95237.13;5106748;28;20172;-62
2023/07/04 05:18:35;;;;;;;1999.90;999.90;;;;;;;19.12;100.00;95225.09;5107707;28;20171;-63
2023/07/04 05:21:09;;;;;;;1999.90;999.90;;;;;;;19.00;100.00;95204.69;5107220;28;20172;-63
2023/07/04 05:23:37;;;;;;;1999.90;999.90;;;;;;;18.89;100.00;95182.22;5107697;28;20180;-65
2023/07/04 05:26:09;;;;;;;1999.90;999.90;;;;;;;18.82;100.00;95154.09;5106992;28;20299;-63
2023/07/04 05:28:35;;;;;;;1999.90;999.90;;;;;;;18.91;100.00;95118.13;5107104;28;20196;-61
2023/07/04 05:31:03;;;;;;;1999.90;999.90;;;;;;;18.89;100.00;95120.56;5107227;28;20242;-68
2023/07/04 05:33:28;;;;;;;1999.90;999.90;;;;;;;18.82;100.00;95137.47;5107112;28;20172;-57
2023/07/04 05:36:10;;;;;;;1999.90;999.90;;;;;;;18.78;100.00;95147.94;5106817;28;20245;-57
2023/07/04 05:38:36;;;;;;;1999.90;999.90;;;;;;;18.81;100.00;95149.78;5107602;28;20194;-57
2023/07/04 05:41:02;;;;;;;1999.90;999.90;;;;;;;18.96;100.00;95153.47;5107159;28;20168;-56
2023/07/04 05:43:28;;;;;;;1999.90;999.90;;;;;;;19.05;100.00;95162.53;5106899;28;20266;-56
2023/07/04 05:45:54;;;;;;;1999.90;999.90;;;;;;;19.39;100.00;95158.66;5106953;28;20172;-56
2023/07/04 05:48:20;;;;;;;1999.90;999.90;;;;;;;19.15;100.00;95190.97;5106881;28;20172;-57
2023/07/04 05:51:07;;;;;;;1999.90;999.90;;;;;;;19.23;100.00;95200.50;5107536;28;20240;-55
2023/07/04 05:53:34;;;;;;;1999.90;999.90;;;;;;;19.17;100.00;95194.06;5107530;28;20245;-55
2023/07/04 05:56:14;;;;;;;1999.90;999.90;;;;;;;19.26;100.00;95182.97;5107029;28;20204;-54
2023/07/04 05:58:42;;;;;;;1999.90;999.90;;;;;;;19.19;100.00;95194.34;5106766;28;20233;-55
2023/07/04 06:01:15;;;;;;;1999.90;999.90;;;;;;;19.17;100.00;95185.75;5106525;28;20221;-57
2023/07/04 06:03:41;;;;;;;1999.90;999.90;;;;;;;19.17;100.00;95192.03;5107269;28;20204;-55
2023/07/04 06:06:27;;;;;;;1999.90;999.90;;;;;;;19.52;100.00;95189.69;5107066;28;20182;-72
2023/07/04 06:08:54;;;;;;;1999.90;999.90;;;;;;;20.09;100.00;95210.75;5107084;28;20195;-71
2023/07/04 06:11:21;;;;;;;1999.90;999.90;;;;;;;20.48;100.00;95231.84;5106551;28;20175;-71
2023/07/04 06:13:46;;;;;;;1999.90;999.90;;;;;;;20.78;100.00;95258.50;5106895;28;20172;-68
2023/07/04 06:16:11;;;;;;;1999.90;999.90;;;;;;;20.91;100.00;95286.78;5106956;28;20239;-74
2023/07/04 06:18:37;;;;;;;1999.90;999.90;;;;;;;21.12;100.00;95290.56;5107070;28;20164;-69
2023/07/04 06:21:09;;;;;;;1999.90;999.90;;;;;;;21.28;100.00;95299.22;5107362;28;20168;-68
2023/07/04 06:23:34;;;;;;;1999.90;999.90;;;;;;;21.68;100.00;95309.84;5106638;28;20164;-55
2023/07/04 06:26:00;;;;;;;1999.90;999.90;;;;;;;22.88;100.00;95315.19;5108657;28;20251;-58
2023/07/04 06:28:25;;;;;;;1999.90;999.90;;;;;;;24.34;100.00;95336.25;5110099;28;20192;-63
2023/07/04 06:30:50;;;;;;;1999.90;999.90;;;;;;;25.07;100.00;95344.72;5109962;28;20213;-63
2023/07/04 06:33:16;;;;;;;1999.90;999.90;;;;;;;24.88;100.00;95357.53;5128220;28;20164;-64
2023/07/04 06:35:42;;;;;;;1999.90;999.90;;;;;;;24.16;100.00;95347.75;5110355;28;20216;-64
2023/07/04 06:38:11;;;;;;;1999.90;999.90;;;;;;;23.42;100.00;95353.47;5110726;28;20189;-64
2023/07/04 06:40:36;;;;;;;1999.90;999.90;;;;;;;22.45;100.00;95339.84;5109970;28;20191;-65
2023/07/04 06:43:04;;;;;;;1999.90;999.90;;;;;;;22.00;100.00;95331.97;5110563;28;20168;-61
2023/07/04 06:45:34;;;;;;;1999.90;999.90;;;;;;;21.84;100.00;95324.09;5127985;28;20171;-61
2023/07/04 06:47:59;;;;;;;1999.90;999.90;;;;;;;21.80;100.00;95329.06;5110037;28;20195;-61
2023/07/04 06:50:25;;;;;;;1999.90;999.90;;;;;;;21.77;100.00;95318.91;5110070;28;20203;-61
2023/07/04 06:52:51;;;;;;;1999.90;999.90;;;;;;;21.91;100.00;95323.72;5110051;28;20179;-61
2023/07/04 06:55:17;;;;;;;1999.90;999.90;;;;;;;22.03;100.00;95331.00;5109751;28;20168;-60
2023/07/04 06:57:43;;;;;;;1999.90;999.90;;;;;;;21.72;100.00;95332.69;5110157;28;20209;-61
2023/07/04 07:00:09;;;;;;;1999.90;999.90;;;;;;;21.79;100.00;95321.97;5109759;28;20183;-54
2023/07/04 07:02:34;;;;;;;1999.90;999.90;;;;;;;22.04;100.00;95332.53;5109551;28;20202;-54
2023/07/04 07:05:00;;;;;;;1999.90;999.90;;;;;;;22.45;100.00;95339.84;5109313;28;20176;-59
2023/07/04 07:07:25;;;;;;;1999.90;999.90;;;;;;;22.79;100.00;95351.53;5109514;28;20172;-59
2023/07/04 07:09:51;;;;;;;1999.90;999.90;;;;;;;22.64;100.00;95362.69;5109550;28;20203;-59
2023/07/04 07:12:16;;;;;;;1999.90;999.90;;;;;;;22.91;100.00;95365.13;5109453;28;20172;-59
2023/07/04 07:14:41;;;;;;;1999.90;999.90;;;;;;;23.11;100.00;95372.75;5109664;28;20197;-59
2023/07/04 07:17:07;;;;;;;1999.90;999.90;;;;;;;23.72;100.00;95368.78;5109137;28;20169;-58
2023/07/04 07:19:33;;;;;;;1999.90;999.90;;;;;;;24.33;100.00;95361.88;5110000;28;20171;-58
2023/07/04 07:22:00;;;;;;;1999.90;999.90;;;;;;;24.84;100.00;95367.41;5109164;28;20168;-61
2023/07/04 07:24:27;;;;;;;1999.90;999.90;;;;;;;25.04;100.00;95358.91;5109292;28;20175;-61
2023/07/04 07:26:53;;;;;;;1999.90;999.90;;;;;;;24.78;100.00;95374.97;5108697;28;20222;-61
2023/07/04 07:29:18;;;;;;;1999.90;999.90;;;;;;;24.40;100.00;95367.00;5108660;28;20203;-61
2023/07/04 07:31:43;;;;;;;1999.90;999.90;;;;;;;24.54;100.00;95364.09;5109056;28;20274;-61
2023/07/04 07:34:09;;;;;;;1999.90;999.90;;;;;;;24.91;100.00;95375.34;5109087;28;20199;-61
2023/07/04 07:36:37;;;;;;;1999.90;999.90;;;;;;;25.54;100.00;95376.00;5108437;28;20264;-61
2023/07/04 07:39:05;;;;;;;1999.90;999.90;;;;;;;25.28;100.00;95371.25;5108471;28;20172;-61
2023/07/04 07:41:33;;;;;;;1999.90;999.90;;;;;;;25.12;100.00;95376.75;5108544;28;20179;-64
2023/07/04 07:43:59;;;;;;;1999.90;999.90;;;;;;;25.33;100.00;95378.19;5108654;28;20168;-64
2023/07/04 07:46:24;;;;;;;1999.90;999.90;;;;;;;25.25;100.00;95377.09;5109375;28;20175;-64
2023/07/04 07:48:50;;;;;;;1999.90;999.90;;;;;;;25.28;100.00;95376.09;5108425;28;20262;-65
2023/07/04 07:51:18;;;;;;;1999.90;999.90;;;;;;;25.26;100.00;95373.03;5108674;28;20176;-62
2023/07/04 07:53:45;;;;;;;1999.90;999.90;;;;;;;25.33;100.00;95372.59;5108358;28;20230;-64
2023/07/04 07:56:13;;;;;;;1999.90;999.90;;;;;;;25.95;100.00;95354.78;5108219;28;20168;-65
2023/07/04 07:58:39;;;;;;;1999.90;999.90;;;;;;;26.43;100.00;95373.00;5108701;28;20172;-59
2023/07/04 08:01:14;;;;;;;1999.90;999.90;;;;;;;26.02;100.00;95363.50;5108572;28;20179;-58
2023/07/04 08:03:41;;;;;;;1999.90;999.90;;;;;;;25.91;100.00;95376.66;5108444;28;20186;-60
2023/07/04 08:06:09;;;;;;;1999.90;999.90;;;;;;;25.33;100.00;95367.00;5108970;28;20167;-59
2023/07/04 08:08:34;;;;;;;1999.90;999.90;;;;;;;25.04;100.00;95359.69;5108664;28;20191;-58
2023/07/04 08:10:59;;;;;;;1999.90;999.90;;;;;;;24.71;100.00;95361.47;5108831;28;20266;-58
2023/07/04 08:13:25;;;;;;;1999.90;999.90;;;;;;;24.63;100.00;95365.97;5108331;28;20168;-58
2023/07/04 08:15:54;;;;;;;1999.90;999.90;;;;;;;24.68;100.00;95362.44;5108772;28;20253;-63
2023/07/04 08:18:20;;;;;;;1999.90;999.90;;;;;;;24.61;100.00;95357.28;5108159;28;20168;-59
2023/07/04 08:20:57;;;;;;;1999.90;999.90;;;;;;;24.83;100.00;95357.47;5108044;28;20168;-58
2023/07/04 08:23:22;;;;;;;1999.90;999.90;;;;;;;24.65;100.00;95357.84;5108547;28;20190;-58
2023/07/04 08:25:47;;;;;;;1999.90;999.90;;;;;;;24.81;100.00;95362.81;5107966;28;20196;-59
2023/07/04 08:28:13;;;;;;;1999.90;999.90;;;;;;;24.57;100.00;95362.31;5107730;28;20172;-59
2023/07/04 08:30:40;;;;;;;1999.90;999.90;;;;;;;24.35;100.00;95362.13;5108260;28;20171;-60
2023/07/04 08:33:06;;;;;;;1999.90;999.90;;;;;;;24.83;100.00;95368.66;5107774;28;20178;-63
2023/07/04 08:35:31;;;;;;;1999.90;999.90;;;;;;;25.13;100.00;95375.50;5108041;28;20232;-65
2023/07/04 08:37:57;;;;;;;1999.90;999.90;;;;;;;26.25;100.00;95379.09;5108303;28;20290;-66
2023/07/04 08:40:22;;;;;;;1999.90;999.90;;;;;;;28.43;100.00;95385.44;5108357;28;20185;-67
2023/07/04 08:42:47;;;;;;;1999.90;999.90;;;;;;;30.28;92.98;95386.22;5108058;28;20285;-66
2023/07/04 08:45:24;;;;;;;1999.90;999.90;;;;;;;29.83;91.87;95390.88;5108063;28;20192;-65
2023/07/04 08:47:51;;;;;;;1999.90;999.90;;;;;;;31.32;82.21;95386.72;5107721;28;20224;-66
2023/07/04 08:50:26;;;;;;;1999.90;999.90;;;;;;;31.60;75.17;95378.50;5108044;28;20195;-65
2023/07/04 08:53:17;;;;;;;1999.90;999.90;;;;;;;32.76;74.06;95385.34;5108171;28;20167;-60
2023/07/04 08:55:50;;;;;;;1999.90;999.90;;;;;;;32.65;68.21;95379.19;5108113;28;20171;-61
2023/07/04 08:58:19;;;;;;;1999.90;999.90;;;;;;;31.26;79.02;95383.25;5107671;28;20164;-61
2023/07/04 09:00:44;;;;;;;1999.90;999.90;;;;;;;32.63;69.21;95376.91;5108107;28;20167;-60
2023/07/04 09:03:22;;;;;;;1999.90;999.90;;;;;;;32.50;66.60;95379.00;5107409;28;20168;-61
2023/07/04 09:05:56;;;;;;;1999.90;999.90;;;;;;;32.64;67.17;95367.13;5107362;28;20179;-61
2023/07/04 09:09:14;;;;;;;1999.90;999.90;;;;;;;32.28;63.23;95368.94;5107809;28;20171;-61
2023/07/04 09:11:39;;;;;;;1999.90;999.90;;;;;;;32.21;68.97;95363.94;5026516;28;20174;-60
2023/07/04 09:14:32;;;;;;;1999.90;999.90;;;;;;;32.79;62.97;95367.28;5100188;28;20213;-59
2023/07/04 09:17:02;;;;;;;1999.90;999.90;;;;;;;32.22;68.45;95359.78;5107245;28;20170;-59
2023/07/04 09:19:35;;;;;;;1999.90;999.90;;;;;;;32.98;64.01;95373.53;5107409;28;20168;-59
2023/07/04 09:22:06;;;;;;;1999.90;999.90;;;;;;;32.78;59.35;95365.00;5107691;28;20160;-59
2023/07/04 09:24:31;;;;;;;1999.90;999.90;;;;;;;33.30;58.87;95376.09;5107733;28;20175;-60
2023/07/04 09:26:57;;;;;;;1999.90;999.90;;;;;;;33.40;61.31;95363.72;5107375;28;20180;-59
2023/07/04 09:29:24;;;;;;;1999.90;999.90;;;;;;;34.08;55.79;95369.13;5107724;28;20203;-59
2023/07/04 09:32:00;;;;;;;1999.90;999.90;;;;;;;33.30;57.84;95365.53;5124834;28;20190;-61
2023/07/04 09:34:38;;;;;;;1999.90;999.90;;;;;;;33.36;62.45;95356.91;5124935;28;20160;-61
2023/07/04 09:37:18;;;;;;;1999.90;999.90;;;;;;;33.54;57.82;95368.00;5106764;28;20212;-61
2023/07/04 09:39:49;;;;;;;1999.90;999.90;;;;;;;33.53;54.89;95363.66;5107129;28;20170;-61
2023/07/04 09:42:17;;;;;;;1999.90;999.90;;;;;;;33.51;57.77;95368.34;5107080;28;20164;-61
2023/07/04 09:44:44;;;;;;;1999.90;999.90;;;;;;;33.90;54.60;95358.81;5124733;28;20160;-61
2023/07/04 09:47:20;;;;;;;1999.90;999.90;;;;;;;33.87;48.93;95368.44;5106622;28;20172;-62
2023/07/04 09:49:45;;;;;;;1999.90;999.90;;;;;;;33.66;51.43;95359.97;5107444;28;20222;-63
2023/07/04 09:52:11;;;;;;;1999.90;999.90;;;;;;;33.76;51.77;95356.03;5124679;28;20192;-62
2023/07/04 09:54:39;;;;;;;1999.90;999.90;;;;;;;33.94;50.56;95353.53;5107010;28;20167;-63
2023/07/04 09:57:22;;;;;;;1999.90;999.90;;;;;;;34.16;48.58;95359.34;5107435;28;20172;-62
2023/07/04 09:59:49;;;;;;;1999.90;999.90;;;;;;;34.43;50.95;95360.63;5106899;28;20152;-62
2023/07/04 10:02:19;;;;;;;1999.90;999.90;;;;;;;33.80;53.07;95345.09;5128628;28;20164;-62
2023/07/04 10:04:50;;;;;;;1999.90;999.90;;;;;;;35.16;48.91;95351.34;5110860;28;20187;-60
2023/07/04 10:07:18;;;;;;;1999.90;999.90;;;;;;;34.71;48.59;95349.16;5110876;28;20175;-61
2023/07/04 10:09:56;;;;;;;1999.90;999.90;;;;;;;34.32;49.60;95343.13;5110618;28;20195;-60
2023/07/04 10:12:23;;;;;;;1999.90;999.90;;;;;;;33.50;54.50;95344.91;5111185;28;20164;-60
2023/07/04 10:14:52;;;;;;;1999.90;999.90;;;;;;;34.03;51.37;95348.09;5128435;28;20236;-59
2023/07/04 10:17:30;;;;;;;1999.90;999.90;;;;;;;34.39;52.07;95336.75;5110711;28;20183;-59
2023/07/04 10:20:00;;;;;;;1999.90;999.90;;;;;;;33.90;50.33;95331.19;5110500;28;20159;-59
2023/07/04 10:22:34;;;;;;;1999.90;999.90;;;;;;;34.18;49.69;95334.00;5110418;28;20172;-60
2023/07/04 10:25:01;;;;;;;1999.90;999.90;;;;;;;34.14;50.71;95332.84;5110380;28;20164;-60
2023/07/04 10:27:36;;;;;;;1999.90;999.90;;;;;;;33.24;54.61;95330.91;5110290;28;20214;-52
2023/07/04 10:30:08;;;;;;;1999.90;999.90;;;;;;;33.84;55.65;95317.19;5110416;28;20213;-54
2023/07/04 10:32:41;;;;;;;1999.90;999.90;;;;;;;33.67;53.11;95319.72;5110840;28;20191;-52
2023/07/04 10:35:14;;;;;;;1999.90;999.90;;;;;;;33.64;54.47;95326.50;5110397;28;20171;-53
2023/07/04 10:37:44;;;;;;;1999.90;999.90;;;;;;;32.93;56.49;95323.47;5110810;28;20226;-55
2023/07/04 10:40:14;;;;;;;1999.90;999.90;;;;;;;33.21;57.34;95314.28;5110161;28;20167;-53
2023/07/04 10:42:55;;;;;;;1999.90;999.90;;;;;;;33.98;55.86;95319.91;5109589;28;20168;-52
2023/07/04 10:45:23;;;;;;;1999.90;999.90;;;;;;;33.51;58.53;95306.75;5110461;28;20156;-61
2023/07/04 10:47:52;;;;;;;1999.90;999.90;;;;;;;33.52;58.38;95313.97;5109964;28;20172;-61
2023/07/04 10:50:23;;;;;;;1999.90;999.90;;;;;;;33.80;56.80;95305.41;5109813;28;20195;-61
2023/07/04 10:52:49;;;;;;;1999.90;999.90;;;;;;;32.34;61.27;95307.34;5109979;28;20164;-62